Time;durP1;ratioP1;P1;durP2;ratioP2;P2;SDS_P1;SDS_P2;PMS_P1;PMS_P2;Temp;Humidity;BMP_temperature;BMP_pressure;BME280_temperature;BME280_humidity;BME280_pressure;Samples;Min_cycle;Max_cycle;Signal;HPM_P1;HPM_P2
2023/05/23 00:01:38;;;;;;;2.50;1.80;;;;;;;;;;5068615;28;20151;-76
2023/05/23 00:04:03;;;;;;;2.15;1.73;;;;;;;;;;5032485;28;20283;-74
2023/05/23 00:06:29;;;;;;;2.20;1.50;;;;;;;;;;5048440;28;20036;-73
2023/05/23 00:08:54;;;;;;;2.37;1.50;;;;;;;;;;5066460;28;20059;-75
2023/05/23 00:11:25;;;;;;;2.47;1.77;;;;;;;;;;5040358;28;20281;-67
2023/05/23 00:13:50;;;;;;;2.13;1.52;;;;;;;;;;5068343;28;20059;-71
2023/05/23 00:16:16;;;;;;;2.50;1.60;;;;;;;;;;5065676;28;20124;-69
2023/05/23 00:18:41;;;;;;;2.23;1.67;;;;;;;;;;5052870;28;20686;-71
2023/05/23 00:21:08;;;;;;;2.17;1.63;;;;;;;;;;5061389;28;20318;-75
2023/05/23 00:23:33;;;;;;;2.50;1.52;;;;;;;;;;5059784;28;20063;-66
2023/05/23 00:25:59;;;;;;;2.25;1.58;;;;;;;;;;5065601;28;20033;-75
2023/05/23 00:28:24;;;;;;;2.60;1.80;;;;;;;;;;5040741;28;20534;-77
2023/05/23 00:30:50;;;;;;;2.42;1.67;;;;;;;;;;5052104;28;20041;-63
2023/05/23 00:33:15;;;;;;;1.80;1.48;;;;;;;;;;5049721;28;20124;-75
2023/05/23 00:35:41;;;;;;;2.88;1.80;;;;;;;;;;5044286;28;20481;-66
2023/05/23 00:38:06;;;;;;;2.58;1.70;;;;;;;;;;5054170;28;20078;-76
2023/05/23 00:40:32;;;;;;;2.53;1.50;;;;;;;;;;5065416;28;20162;-74
2023/05/23 00:42:57;;;;;;;3.17;1.60;;;;;;;;;;5049803;28;20064;-67
2023/05/23 00:45:22;;;;;;;2.13;1.50;;;;;;;;;;5057078;28;20032;-65
2023/05/23 00:47:48;;;;;;;2.30;1.40;;;;;;;;;;5061282;28;20326;-71
2023/05/23 00:50:13;;;;;;;2.03;1.50;;;;;;;;;;5057820;28;20037;-76
2023/05/23 00:52:38;;;;;;;2.63;1.55;;;;;;;;;;5050654;28;20796;-68
2023/05/23 00:55:04;;;;;;;2.87;1.60;;;;;;;;;;5047753;28;20481;-74
2023/05/23 00:57:29;;;;;;;2.50;1.52;;;;;;;;;;5052915;28;20797;-76
2023/05/23 00:59:54;;;;;;;2.70;1.77;;;;;;;;;;5047530;28;20131;-68
2023/05/23 01:02:20;;;;;;;1.80;1.37;;;;;;;;;;5046635;28;20044;-70
2023/05/23 01:04:46;;;;;;;2.03;1.40;;;;;;;;;;5046802;28;20415;-77
2023/05/23 01:07:12;;;;;;;2.22;1.58;;;;;;;;;;5046775;28;20037;-75
2023/05/23 01:09:37;;;;;;;2.30;1.50;;;;;;;;;;5054851;28;20527;-68
2023/05/23 01:12:15;;;;;;;2.53;1.83;;;;;;;;;;5046621;28;20097;-68
2023/05/23 01:14:42;;;;;;;2.28;1.52;;;;;;;;;;5046376;28;20398;-75
2023/05/23 01:17:12;;;;;;;2.08;1.67;;;;;;;;;;5045367;28;20036;-67
2023/05/23 01:19:53;;;;;;;1.85;1.38;;;;;;;;;;5041227;28;20100;-66
2023/05/23 01:22:21;;;;;;;2.53;1.60;;;;;;;;;;5049243;28;20514;-73
2023/05/23 01:24:49;;;;;;;2.30;1.40;;;;;;;;;;5031918;28;20042;-75
2023/05/23 01:27:26;;;;;;;2.75;1.50;;;;;;;;;;5035068;28;20059;-78
2023/05/23 01:29:53;;;;;;;1.92;1.30;;;;;;;;;;5054815;28;20122;-66
2023/05/23 01:32:21;;;;;;;2.05;1.58;;;;;;;;;;5041241;28;20033;-66
2023/05/23 01:34:46;;;;;;;2.20;1.63;;;;;;;;;;5045763;28;20059;-65
2023/05/23 01:37:17;;;;;;;2.50;1.77;;;;;;;;;;5047131;28;20032;-72
2023/05/23 01:39:42;;;;;;;2.10;1.42;;;;;;;;;;5055972;28;20040;-61
2023/05/23 01:42:07;;;;;;;2.50;1.57;;;;;;;;;;5039176;28;20458;-66
2023/05/23 01:44:33;;;;;;;2.07;1.40;;;;;;;;;;5033889;28;20298;-72
2023/05/23 01:46:58;;;;;;;2.30;1.60;;;;;;;;;;5054051;28;20079;-73
2023/05/23 01:49:23;;;;;;;2.30;1.43;;;;;;;;;;5034847;28;20542;-66
2023/05/23 01:51:49;;;;;;;2.10;1.70;;;;;;;;;;5046013;28;20641;-74
2023/05/23 01:54:15;;;;;;;1.95;1.40;;;;;;;;;;5027108;28;20271;-75
2023/05/23 01:56:41;;;;;;;2.40;1.38;;;;;;;;;;5025207;28;20409;-72
2023/05/23 01:59:07;;;;;;;2.20;1.50;;;;;;;;;;5044645;28;20123;-72
2023/05/23 02:01:32;;;;;;;2.43;1.80;;;;;;;;;;5056170;28;20534;-74
2023/05/23 02:03:57;;;;;;;2.03;1.60;;;;;;;;;;5033356;28;20266;-71
2023/05/23 02:06:22;;;;;;;2.33;1.60;;;;;;;;;;5036021;28;20259;-70
2023/05/23 02:08:48;;;;;;;1.88;1.50;;;;;;;;;;5044675;28;20334;-70
2023/05/23 02:11:13;;;;;;;2.33;1.53;;;;;;;;;;5045409;28;20013;-75
2023/05/23 02:13:38;;;;;;;2.05;1.50;;;;;;;;;;5049600;28;20259;-66
2023/05/23 02:16:04;;;;;;;2.70;1.67;;;;;;;;;;5045108;28;20020;-72
2023/05/23 02:18:29;;;;;;;1.88;1.50;;;;;;;;;;5044523;28;20017;-73
2023/05/23 02:20:57;;;;;;;1.87;1.33;;;;;;;;;;5045695;28;20130;-76
2023/05/23 02:23:22;;;;;;;2.35;1.65;;;;;;;;;;5045614;28;20226;-71
2023/05/23 02:25:48;;;;;;;2.20;1.50;;;;;;;;;;5032518;28;20092;-71
2023/05/23 02:28:13;;;;;;;2.10;1.40;;;;;;;;;;5059108;28;20290;-75
2023/05/23 02:30:38;;;;;;;2.00;1.30;;;;;;;;;;5053912;28;20290;-76
2023/05/23 02:33:05;;;;;;;2.63;1.48;;;;;;;;;;5044413;28;20247;-67
2023/05/23 02:35:30;;;;;;;2.08;1.55;;;;;;;;;;5045359;28;20035;-72
2023/05/23 02:37:55;;;;;;;2.53;1.60;;;;;;;;;;5045604;28;20021;-74
2023/05/23 02:40:20;;;;;;;2.25;1.70;;;;;;;;;;5045341;28;20056;-69
2023/05/23 02:42:46;;;;;;;2.20;1.50;;;;;;;;;;5028228;28;20013;-73
2023/05/23 02:45:11;;;;;;;2.00;1.27;;;;;;;;;;5029633;28;20399;-75
2023/05/23 02:47:36;;;;;;;2.10;1.37;;;;;;;;;;5025903;28;20292;-66
2023/05/23 02:50:01;;;;;;;1.87;1.30;;;;;;;;;;5029244;28;20280;-75
2023/05/23 02:52:26;;;;;;;2.37;1.40;;;;;;;;;;5028400;28;20798;-72
2023/05/23 02:54:52;;;;;;;1.90;1.30;;;;;;;;;;5029558;28;22863;-74
2023/05/23 02:57:17;;;;;;;2.20;1.50;;;;;;;;;;5027122;28;20429;-69
2023/05/23 02:59:42;;;;;;;1.80;1.23;;;;;;;;;;5025686;28;20061;-73
2023/05/23 03:02:07;;;;;;;2.03;1.40;;;;;;;;;;5024632;28;20064;-60
2023/05/23 03:04:33;;;;;;;2.20;1.37;;;;;;;;;;5031704;28;20037;-69
2023/05/23 03:06:58;;;;;;;2.00;1.37;;;;;;;;;;5029174;28;20045;-73
2023/05/23 03:09:23;;;;;;;2.60;1.25;;;;;;;;;;5029675;28;20045;-64
2023/05/23 03:11:49;;;;;;;1.80;1.27;;;;;;;;;;5039151;28;20040;-69
2023/05/23 03:14:14;;;;;;;2.03;1.30;;;;;;;;;;5026165;28;20033;-71
2023/05/23 03:16:39;;;;;;;1.90;1.30;;;;;;;;;;5030733;28;20257;-74
2023/05/23 03:19:04;;;;;;;1.67;1.35;;;;;;;;;;5011493;28;20034;-76
2023/05/23 03:21:31;;;;;;;2.70;1.60;;;;;;;;;;5023740;28;20030;-69
2023/05/23 03:23:56;;;;;;;2.15;1.40;;;;;;;;;;5014090;28;20039;-72
2023/05/23 03:26:21;;;;;;;1.50;1.07;;;;;;;;;;5028313;28;20033;-76
2023/05/23 03:28:47;;;;;;;1.60;1.45;;;;;;;;;;5031321;28;20726;-74
2023/05/23 03:31:12;;;;;;;1.55;1.20;;;;;;;;;;5048670;28;20098;-66
2023/05/23 03:33:38;;;;;;;1.57;1.20;;;;;;;;;;5055323;28;20033;-72
2023/05/23 03:36:03;;;;;;;1.83;1.40;;;;;;;;;;5052870;28;20071;-75
2023/05/23 03:38:28;;;;;;;1.90;1.60;;;;;;;;;;5048204;28;20033;-73
2023/05/23 03:40:53;;;;;;;1.77;1.50;;;;;;;;;;5045309;28;20296;-62
2023/05/23 03:43:19;;;;;;;2.13;1.40;;;;;;;;;;5027931;28;20745;-69
2023/05/23 03:45:44;;;;;;;2.33;1.52;;;;;;;;;;5032956;28;20276;-73
2023/05/23 03:48:10;;;;;;;3.43;1.50;;;;;;;;;;5032906;28;20041;-72
2023/05/23 03:50:35;;;;;;;3.30;1.70;;;;;;;;;;5024593;28;20284;-71
2023/05/23 03:53:00;;;;;;;3.13;1.57;;;;;;;;;;5033674;28;20123;-75
2023/05/23 03:55:25;;;;;;;5.60;1.30;;;;;;;;;;5048896;28;20481;-72
2023/05/23 03:57:51;;;;;;;1.77;1.23;;;;;;;;;;5033912;28;20283;-68
2023/05/23 04:00:17;;;;;;;1.85;1.27;;;;;;;;;;5052888;28;20047;-71
2023/05/23 04:02:43;;;;;;;2.17;1.33;;;;;;;;;;5051361;28;20040;-68
2023/05/23 04:05:09;;;;;;;2.10;1.60;;;;;;;;;;5050164;28;20025;-71
2023/05/23 04:07:35;;;;;;;2.10;1.30;;;;;;;;;;5044734;28;20174;-70
2023/05/23 04:10:00;;;;;;;1.98;1.30;;;;;;;;;;5055623;28;20040;-70
2023/05/23 04:12:25;;;;;;;1.90;1.57;;;;;;;;;;5048336;28;20104;-66
2023/05/23 04:14:51;;;;;;;7.40;2.20;;;;;;;;;;5047276;28;20055;-75
2023/05/23 04:17:17;;;;;;;3.40;1.70;;;;;;;;;;5046857;28;20110;-70
2023/05/23 04:19:42;;;;;;;2.75;1.58;;;;;;;;;;5021519;28;20036;-67
2023/05/23 04:22:07;;;;;;;2.77;1.40;;;;;;;;;;5046510;28;20067;-65
2023/05/23 04:24:33;;;;;;;2.00;1.43;;;;;;;;;;5045474;28;20036;-67
2023/05/23 04:26:58;;;;;;;2.83;1.70;;;;;;;;;;5048850;28;20282;-68
2023/05/23 04:29:25;;;;;;;2.10;1.33;;;;;;;;;;5046206;28;20572;-73
2023/05/23 04:31:50;;;;;;;2.72;1.55;;;;;;;;;;5050161;28;20082;-70
2023/05/23 04:34:16;;;;;;;2.42;1.58;;;;;;;;;;5049532;28;20037;-73
2023/05/23 04:36:43;;;;;;;3.03;1.70;;;;;;;;;;5047474;28;20450;-70
2023/05/23 04:39:09;;;;;;;1.95;1.50;;;;;;;;;;5050852;28;20048;-67
2023/05/23 04:41:35;;;;;;;2.45;1.40;;;;;;;;;;5054389;28;20029;-68
2023/05/23 04:44:00;;;;;;;2.03;1.65;;;;;;;;;;5055083;28;20089;-74
2023/05/23 04:46:25;;;;;;;2.83;1.50;;;;;;;;;;5047602;28;20120;-72
2023/05/23 04:48:51;;;;;;;2.17;1.50;;;;;;;;;;5049917;28;20279;-76
2023/05/23 04:51:17;;;;;;;1.98;1.38;;;;;;;;;;5050785;28;20279;-63
2023/05/23 04:53:43;;;;;;;3.83;1.40;;;;;;;;;;5045365;28;20063;-71
2023/05/23 04:56:08;;;;;;;2.72;1.70;;;;;;;;;;5048876;28;20291;-73
2023/05/23 04:58:33;;;;;;;2.47;1.55;;;;;;;;;;5047880;28;20603;-66
2023/05/23 05:00:59;;;;;;;2.30;1.70;;;;;;;;;;5050780;28;20029;-69
2023/05/23 05:03:25;;;;;;;2.33;1.60;;;;;;;;;;5047781;28;20037;-71
2023/05/23 05:05:50;;;;;;;2.47;1.48;;;;;;;;;;5046743;28;20041;-76
2023/05/23 05:08:18;;;;;;;2.35;1.48;;;;;;;;;;5047273;28;20091;-74
2023/05/23 05:10:43;;;;;;;2.55;1.42;;;;;;;;;;5047250;28;20048;-71
2023/05/23 05:13:09;;;;;;;2.63;1.47;;;;;;;;;;5047795;28;20032;-67
2023/05/23 05:15:34;;;;;;;2.45;1.30;;;;;;;;;;5049704;28;20036;-70
2023/05/23 05:17:59;;;;;;;2.57;1.80;;;;;;;;;;5045918;28;20099;-72
2023/05/23 05:20:24;;;;;;;2.20;1.67;;;;;;;;;;5050336;28;20313;-63
2023/05/23 05:22:56;;;;;;;2.17;1.60;;;;;;;;;;5050052;28;20275;-68
2023/05/23 05:25:22;;;;;;;2.00;1.40;;;;;;;;;;5030322;28;20730;-67
2023/05/23 05:27:47;;;;;;;1.92;1.52;;;;;;;;;;5047123;28;20065;-70
2023/05/23 05:30:12;;;;;;;2.80;1.83;;;;;;;;;;5052601;28;20045;-62
2023/05/23 05:32:37;;;;;;;3.67;1.60;;;;;;;;;;5049571;28;20033;-63
2023/05/23 05:35:03;;;;;;;2.90;1.73;;;;;;;;;;5032716;28;20572;-63
2023/05/23 05:37:28;;;;;;;2.05;1.80;;;;;;;;;;5042166;28;20025;-64
2023/05/23 05:39:53;;;;;;;1.92;1.35;;;;;;;;;;5044388;28;20075;-66
2023/05/23 05:42:19;;;;;;;3.55;1.52;;;;;;;;;;5046013;28;20098;-62
2023/05/23 05:44:44;;;;;;;3.28;1.63;;;;;;;;;;5028978;28;20511;-73
2023/05/23 05:47:10;;;;;;;4.60;1.70;;;;;;;;;;5047970;28;20095;-71
2023/05/23 05:49:35;;;;;;;2.63;1.60;;;;;;;;;;5045257;28;20075;-74
2023/05/23 05:52:00;;;;;;;2.90;1.67;;;;;;;;;;5046502;28;20025;-74
2023/05/23 05:54:25;;;;;;;5.53;2.00;;;;;;;;;;5024290;28;20045;-72
2023/05/23 05:56:51;;;;;;;5.67;1.80;;;;;;;;;;5034522;28;20040;-66
2023/05/23 05:59:16;;;;;;;5.03;1.63;;;;;;;;;;5045799;28;20328;-66
2023/05/23 06:01:41;;;;;;;3.60;1.80;;;;;;;;;;5046318;28;20322;-77
2023/05/23 06:04:06;;;;;;;4.43;1.70;;;;;;;;;;5049460;28;20055;-66
2023/05/23 06:06:32;;;;;;;3.47;1.73;;;;;;;;;;5051605;28;20040;-68
2023/05/23 06:08:57;;;;;;;2.90;1.67;;;;;;;;;;5055821;28;20302;-62
2023/05/23 06:11:23;;;;;;;3.08;1.80;;;;;;;;;;5052619;28;20033;-64
2023/05/23 06:13:48;;;;;;;3.60;1.87;;;;;;;;;;5043689;28;20033;-64
2023/05/23 06:16:14;;;;;;;2.37;1.60;;;;;;;;;;5042570;28;20123;-70
2023/05/23 06:18:39;;;;;;;2.17;1.60;;;;;;;;;;5042241;28;20270;-68
2023/05/23 06:21:04;;;;;;;3.60;2.13;;;;;;;;;;5044717;28;20112;-74
2023/05/23 06:23:29;;;;;;;3.42;1.77;;;;;;;;;;5042428;28;20148;-73
2023/05/23 06:25:55;;;;;;;3.50;1.83;;;;;;;;;;5048034;28;20096;-71
2023/05/23 06:28:20;;;;;;;2.72;1.90;;;;;;;;;;5047568;28;20052;-75
2023/05/23 06:30:45;;;;;;;2.80;1.67;;;;;;;;;;5041481;28;20498;-74
2023/05/23 06:33:11;;;;;;;1.90;1.40;;;;;;;;;;5044735;28;20582;-71
2023/05/23 06:35:36;;;;;;;2.60;1.63;;;;;;;;;;5046819;28;20687;-70
2023/05/23 06:38:02;;;;;;;5.72;4.20;;;;;;;;;;5053831;28;20029;-73
2023/05/23 06:40:27;;;;;;;9.32;6.88;;;;;;;;;;5045839;28;20557;-72
2023/05/23 06:42:52;;;;;;;11.77;8.77;;;;;;;;;;5038947;28;20052;-67
2023/05/23 06:45:17;;;;;;;16.53;8.97;;;;;;;;;;5042906;28;20836;-63
2023/05/23 06:47:44;;;;;;;15.52;9.40;;;;;;;;;;5045340;28;20566;-69
2023/05/23 06:50:09;;;;;;;16.45;10.00;;;;;;;;;;5049373;28;20411;-68
2023/05/23 06:52:34;;;;;;;15.70;10.63;;;;;;;;;;5046060;28;20045;-70
2023/05/23 06:55:00;;;;;;;16.10;10.20;;;;;;;;;;5051281;28;20128;-64
2023/05/23 06:57:25;;;;;;;15.27;10.33;;;;;;;;;;5049280;28;20151;-66
2023/05/23 06:59:50;;;;;;;16.17;10.60;;;;;;;;;;5048481;28;20964;-68
2023/05/23 07:02:15;;;;;;;15.60;11.03;;;;;;;;;;5047452;28;20585;-65
2023/05/23 07:04:41;;;;;;;15.37;10.80;;;;;;;;;;5046066;28;20459;-61
2023/05/23 07:07:06;;;;;;;17.57;10.37;;;;;;;;;;5052224;28;20391;-67
2023/05/23 07:09:31;;;;;;;15.07;11.50;;;;;;;;;;5050786;28;20295;-66
2023/05/23 07:11:56;;;;;;;16.00;11.23;;;;;;;;;;5051319;28;20211;-65
2023/05/23 07:14:21;;;;;;;17.20;10.70;;;;;;;;;;5043479;28;20283;-66
2023/05/23 07:16:47;;;;;;;15.87;11.03;;;;;;;;;;5050493;28;20033;-61
2023/05/23 07:19:12;;;;;;;16.87;10.87;;;;;;;;;;5051047;28;20766;-67
2023/05/23 07:21:37;;;;;;;20.03;10.73;;;;;;;;;;5024299;28;20495;-63
2023/05/23 07:24:02;;;;;;;18.10;11.33;;;;;;;;;;5069068;28;20437;-62
2023/05/23 07:26:28;;;;;;;18.53;10.80;;;;;;;;;;5055705;28;20553;-62
2023/05/23 07:28:53;;;;;;;17.50;10.43;;;;;;;;;;5061658;28;20735;-62
2023/05/23 07:31:18;;;;;;;17.60;10.17;;;;;;;;;;5055759;28;20345;-67
2023/05/23 07:33:43;;;;;;;17.17;10.10;;;;;;;;;;5059732;28;20314;-66
2023/05/23 07:36:09;;;;;;;16.50;10.38;;;;;;;;;;5063439;28;20048;-65
2023/05/23 07:38:34;;;;;;;18.13;11.32;;;;;;;;;;5036317;28;20033;-65
2023/05/23 07:40:59;;;;;;;20.37;10.93;;;;;;;;;;5066208;28;20078;-65
2023/05/23 07:43:24;;;;;;;19.63;11.83;;;;;;;;;;5068196;28;20814;-65
2023/05/23 07:45:50;;;;;;;19.60;11.50;;;;;;;;;;5044367;28;20350;-61
2023/05/23 07:48:15;;;;;;;17.37;10.77;;;;;;;;;;5067008;28;20128;-65
2023/05/23 07:50:40;;;;;;;19.55;11.18;;;;;;;;;;5067193;28;20119;-63
2023/05/23 07:53:06;;;;;;;15.45;11.25;;;;;;;;;;5054107;28;20537;-66
2023/05/23 07:55:31;;;;;;;16.20;9.93;;;;;;;;;;5068023;28;20097;-61
2023/05/23 07:57:56;;;;;;;16.20;9.93;;;;;;;;;;5053336;28;20179;-62
2023/05/23 08:00:21;;;;;;;14.98;10.15;;;;;;;;;;5055507;28;20162;-65
2023/05/23 08:02:47;;;;;;;17.60;9.43;;;;;;;;;;5053265;28;20506;-64
2023/05/23 08:05:12;;;;;;;16.63;10.35;;;;;;;;;;5065815;28;20411;-66
2023/05/23 08:07:37;;;;;;;21.50;12.13;;;;;;;;;;5049372;28;20048;-69
2023/05/23 08:10:02;;;;;;;17.05;10.77;;;;;;;;;;5059920;28;20136;-65
2023/05/23 08:12:28;;;;;;;18.27;11.35;;;;;;;;;;5059418;28;20398;-62
2023/05/23 08:14:53;;;;;;;17.77;12.10;;;;;;;;;;5054312;28;20442;-62
2023/05/23 08:17:18;;;;;;;16.53;11.13;;;;;;;;;;5064073;28;20533;-63
2023/05/23 08:19:43;;;;;;;16.23;9.55;;;;;;;;;;5048626;28;20534;-61
2023/05/23 08:22:09;;;;;;;18.67;10.63;;;;;;;;;;5054570;28;20033;-67
2023/05/23 08:24:34;;;;;;;16.07;9.67;;;;;;;;;;5067164;28;20036;-63
2023/05/23 08:26:59;;;;;;;17.90;12.10;;;;;;;;;;5066123;28;20764;-64
2023/05/23 08:29:24;;;;;;;18.80;11.48;;;;;;;;;;5062689;28;20577;-66
2023/05/23 08:31:50;;;;;;;18.58;11.52;;;;;;;;;;5066545;28;20364;-62
2023/05/23 08:34:15;;;;;;;16.67;10.53;;;;;;;;;;5053034;28;20040;-64
2023/05/23 08:36:41;;;;;;;17.07;10.63;;;;;;;;;;5048862;28;20033;-67
2023/05/23 08:39:07;;;;;;;15.85;10.43;;;;;;;;;;5059749;28;20067;-60
2023/05/23 08:41:32;;;;;;;16.73;9.20;;;;;;;;;;5066000;28;20048;-56
2023/05/23 08:43:57;;;;;;;14.77;9.80;;;;;;;;;;5035802;28;20297;-61
2023/05/23 08:46:22;;;;;;;12.93;9.10;;;;;;;;;;5052544;28;20415;-64
2023/05/23 08:48:51;;;;;;;13.10;8.77;;;;;;;;;;5046774;28;20429;-60
2023/05/23 08:51:16;;;;;;;13.70;8.77;;;;;;;;;;5061923;28;20711;-63
2023/05/23 08:53:52;;;;;;;12.00;8.50;;;;;;;;;;5048210;28;20184;-58
2023/05/23 08:56:17;;;;;;;12.98;8.98;;;;;;;;;;5041495;28;20290;-60
2023/05/23 08:58:43;;;;;;;11.38;8.05;;;;;;;;;;5042645;28;20035;-56
2023/05/23 09:01:09;;;;;;;10.87;7.43;;;;;;;;;;5047592;28;20060;-60
2023/05/23 09:03:36;;;;;;;9.98;6.50;;;;;;;;;;5046613;28;20037;-65
2023/05/23 09:06:05;;;;;;;9.88;6.28;;;;;;;;;;5051221;28;20036;-66
2023/05/23 09:08:30;;;;;;;9.50;6.07;;;;;;;;;;5045938;28;20522;-65
2023/05/23 09:10:56;;;;;;;8.03;5.73;;;;;;;;;;5047801;28;20119;-67
2023/05/23 09:13:21;;;;;;;9.63;5.70;;;;;;;;;;5063992;28;20283;-68
2023/05/23 09:16:01;;;;;;;7.03;5.33;;;;;;;;;;5054312;28;20341;-71
2023/05/23 09:18:27;;;;;;;7.40;5.38;;;;;;;;;;5052054;28;20309;-63
2023/05/23 09:20:53;;;;;;;7.57;4.60;;;;;;;;;;5052547;28;20072;-63
2023/05/23 09:23:18;;;;;;;6.63;4.90;;;;;;;;;;5035899;28;20029;-68
2023/05/23 09:25:46;;;;;;;6.78;4.50;;;;;;;;;;5053417;28;20033;-69
2023/05/23 09:28:12;;;;;;;7.32;4.00;;;;;;;;;;5056563;28;20548;-62
2023/05/23 09:30:37;;;;;;;6.43;4.30;;;;;;;;;;5055932;28;20045;-68
2023/05/23 09:33:02;;;;;;;6.20;3.92;;;;;;;;;;5056649;28;20828;-66
2023/05/23 09:35:28;;;;;;;5.57;4.03;;;;;;;;;;5053415;28;20472;-61
2023/05/23 09:37:55;;;;;;;6.65;3.67;;;;;;;;;;5046109;28;20068;-63
2023/05/23 09:40:20;;;;;;;5.80;3.88;;;;;;;;;;5058885;28;20135;-62
2023/05/23 09:42:45;;;;;;;6.20;3.37;;;;;;;;;;5054299;28;20041;-67
2023/05/23 09:45:11;;;;;;;5.88;3.30;;;;;;;;;;5058920;28;20067;-65
2023/05/23 09:47:36;;;;;;;6.68;3.33;;;;;;;;;;5057137;28;20450;-64
2023/05/23 09:50:02;;;;;;;5.83;3.60;;;;;;;;;;5065227;28;20044;-65
2023/05/23 09:52:32;;;;;;;7.15;3.92;;;;;;;;;;5052862;28;20310;-60
2023/05/23 09:54:58;;;;;;;6.95;3.70;;;;;;;;;;5051500;28;20040;-61
2023/05/23 09:57:24;;;;;;;5.93;3.03;;;;;;;;;;5054852;28;20036;-59
2023/05/23 09:59:55;;;;;;;8.60;3.37;;;;;;;;;;5050448;28;20495;-61
2023/05/23 10:02:38;;;;;;;9.10;3.15;;;;;;;;;;5056107;28;20035;-61
2023/05/23 10:05:03;;;;;;;6.65;3.05;;;;;;;;;;5037150;28;23422;-59
2023/05/23 10:07:29;;;;;;;5.80;2.55;;;;;;;;;;5029710;28;20072;-64
2023/05/23 10:09:55;;;;;;;4.85;2.83;;;;;;;;;;5055232;28;20052;-62
2023/05/23 10:12:29;;;;;;;5.03;2.95;;;;;;;;;;5055327;28;20518;-61
2023/05/23 10:14:56;;;;;;;4.55;3.28;;;;;;;;;;5056569;28;20032;-60
2023/05/23 10:17:25;;;;;;;5.97;2.90;;;;;;;;;;5057420;28;20041;-66
2023/05/23 10:20:01;;;;;;;3.65;2.78;;;;;;;;;;5047059;28;20029;-63
2023/05/23 10:22:26;;;;;;;6.43;3.33;;;;;;;;;;5051016;28;20069;-63
2023/05/23 10:24:51;;;;;;;4.37;2.63;;;;;;;;;;5047519;28;20064;-60
2023/05/23 10:27:17;;;;;;;3.53;2.70;;;;;;;;;;5059139;28;20037;-63
2023/05/23 10:29:42;;;;;;;7.50;3.37;;;;;;;;;;5034606;28;20952;-57
2023/05/23 10:32:07;;;;;;;8.23;3.33;;;;;;;;;;5028486;28;20723;-64
2023/05/23 10:34:36;;;;;;;5.53;2.77;;;;;;;;;;5052253;28;20036;-64
2023/05/23 10:37:02;;;;;;;5.03;3.25;;;;;;;;;;5041414;28;20283;-63
2023/05/23 10:39:31;;;;;;;5.78;2.75;;;;;;;;;;5031630;28;20032;-63
2023/05/23 10:42:00;;;;;;;4.30;2.70;;;;;;;;;;5058439;28;20135;-67
2023/05/23 10:44:26;;;;;;;4.28;2.85;;;;;;;;;;5043897;28;20049;-68
2023/05/23 10:47:02;;;;;;;4.38;2.70;;;;;;;;;;5020488;28;20021;-68
2023/05/23 10:49:38;;;;;;;4.82;2.85;;;;;;;;;;5035168;28;20491;-65
2023/05/23 10:52:05;;;;;;;3.70;2.58;;;;;;;;;;5028189;28;20050;-67
2023/05/23 10:54:34;;;;;;;4.30;2.67;;;;;;;;;;5040163;28;20175;-66
2023/05/23 10:57:03;;;;;;;5.25;2.80;;;;;;;;;;5035902;28;20036;-64
2023/05/23 10:59:28;;;;;;;4.57;2.90;;;;;;;;;;5041684;28;20395;-63
2023/05/23 11:01:54;;;;;;;6.60;3.20;;;;;;;;;;5032528;28;20029;-67
2023/05/23 11:04:26;;;;;;;4.75;2.97;;;;;;;;;;5038861;28;20378;-69
2023/05/23 11:06:52;;;;;;;4.07;2.67;;;;;;;;;;5027986;28;20026;-63
2023/05/23 11:09:18;;;;;;;4.78;3.00;;;;;;;;;;5037586;28;20053;-64
2023/05/23 11:11:49;;;;;;;5.10;3.00;;;;;;;;;;5027617;28;20119;-62
2023/05/23 11:14:14;;;;;;;3.90;2.67;;;;;;;;;;5028388;28;20168;-70
2023/05/23 11:16:40;;;;;;;3.83;2.63;;;;;;;;;;5027728;28;20124;-68
2023/05/23 11:19:18;;;;;;;4.28;2.60;;;;;;;;;;5035094;28;20072;-64
2023/05/23 11:21:44;;;;;;;3.97;2.35;;;;;;;;;;5034183;28;20045;-65
2023/05/23 11:24:09;;;;;;;4.32;2.50;;;;;;;;;;5027607;28;20128;-68
2023/05/23 11:26:34;;;;;;;4.30;2.47;;;;;;;;;;5027896;28;20026;-67
2023/05/23 11:29:01;;;;;;;3.33;2.00;;;;;;;;;;5027860;28;20455;-65
2023/05/23 11:31:27;;;;;;;4.55;2.55;;;;;;;;;;5027262;28;20045;-68
2023/05/23 11:33:52;;;;;;;4.67;2.57;;;;;;;;;;5031286;28;20042;-61
2023/05/23 11:36:17;;;;;;;4.85;2.53;;;;;;;;;;5026917;28;20042;-64
2023/05/23 11:38:43;;;;;;;5.67;2.70;;;;;;;;;;5025586;28;20183;-66
2023/05/23 11:41:08;;;;;;;5.70;2.63;;;;;;;;;;5028100;28;20820;-63
2023/05/23 11:43:33;;;;;;;4.50;2.20;;;;;;;;;;5029746;28;20412;-65
2023/05/23 11:46:06;;;;;;;3.37;2.27;;;;;;;;;;5027399;28;20294;-66
2023/05/23 11:48:31;;;;;;;5.80;2.67;;;;;;;;;;5027716;28;20168;-65
2023/05/23 11:50:56;;;;;;;3.30;2.30;;;;;;;;;;5029040;28;20475;-61
2023/05/23 11:53:23;;;;;;;3.83;2.80;;;;;;;;;;5027581;28;20040;-68
2023/05/23 11:55:49;;;;;;;3.17;2.40;;;;;;;;;;5027214;28;20276;-70
2023/05/23 11:58:15;;;;;;;4.88;2.53;;;;;;;;;;5033487;28;20396;-66
2023/05/23 12:00:44;;;;;;;5.53;2.80;;;;;;;;;;5031362;28;20025;-62
2023/05/23 12:03:10;;;;;;;3.42;2.58;;;;;;;;;;5046103;28;20038;-73
2023/05/23 12:05:35;;;;;;;3.67;2.53;;;;;;;;;;5027150;28;20018;-70
2023/05/23 12:08:00;;;;;;;4.67;2.80;;;;;;;;;;5026924;28;20044;-72
2023/05/23 12:10:26;;;;;;;3.53;2.75;;;;;;;;;;5027956;28;20268;-67
2023/05/23 12:12:51;;;;;;;4.95;2.67;;;;;;;;;;5058163;28;20106;-67
2023/05/23 12:15:16;;;;;;;5.10;2.37;;;;;;;;;;5046503;28;20103;-63
2023/05/23 12:17:45;;;;;;;2.70;2.20;;;;;;;;;;5034177;28;20139;-62
2023/05/23 12:20:10;;;;;;;2.90;2.30;;;;;;;;;;5027243;28;20034;-63
2023/05/23 12:33:39;;;;;;;3.75;3.00;;;;;;;;;;5048667;27;20170;-66
2023/05/23 12:36:05;;;;;;;4.22;2.60;;;;;;;;;;5030256;28;20182;-65
2023/05/23 12:38:36;;;;;;;4.03;2.65;;;;;;;;;;5039740;28;20108;-71
2023/05/23 12:41:08;;;;;;;4.85;2.85;;;;;;;;;;5039188;28;20037;-66
2023/05/23 12:43:36;;;;;;;4.78;2.75;;;;;;;;;;5056072;22;20053;-63
2023/05/23 12:46:01;;;;;;;4.22;2.88;;;;;;;;;;5017970;28;20033;-62
2023/05/23 12:48:26;;;;;;;4.60;2.58;;;;;;;;;;5002690;28;20435;-64
2023/05/23 12:50:51;;;;;;;3.80;2.63;;;;;;;;;;5004966;28;20034;-63
2023/05/23 12:53:17;;;;;;;5.77;2.90;;;;;;;;;;5008525;28;20045;-65
2023/05/23 12:55:42;;;;;;;3.90;2.80;;;;;;;;;;5007591;28;20034;-66
2023/05/23 12:58:07;;;;;;;3.93;2.23;;;;;;;;;;5021443;28;20565;-62
2023/05/23 13:00:32;;;;;;;5.50;3.20;;;;;;;;;;5031699;23;20399;-62
2023/05/23 13:02:58;;;;;;;3.65;2.72;;;;;;;;;;5022787;28;20312;-62
2023/05/23 13:05:23;;;;;;;5.72;2.67;;;;;;;;;;5024845;28;20048;-57
2023/05/23 13:07:49;;;;;;;6.45;2.78;;;;;;;;;;5026068;28;20057;-61
2023/05/23 13:10:14;;;;;;;3.85;2.30;;;;;;;;;;5023659;28;20586;-61
2023/05/23 13:12:39;;;;;;;3.85;2.65;;;;;;;;;;5024872;28;20051;-58
2023/05/23 13:15:05;;;;;;;4.55;2.70;;;;;;;;;;5025081;28;20426;-59
2023/05/23 13:17:30;;;;;;;4.60;2.38;;;;;;;;;;5025609;28;20080;-62
2023/05/23 13:19:56;;;;;;;4.67;2.60;;;;;;;;;;5023586;28;20042;-59
2023/05/23 13:22:21;;;;;;;4.38;2.63;;;;;;;;;;5023744;28;20498;-58
2023/05/23 13:24:46;;;;;;;4.20;2.50;;;;;;;;;;5025087;28;20025;-60
2023/05/23 13:27:12;;;;;;;4.20;2.67;;;;;;;;;;5038290;28;20052;-60
2023/05/23 13:29:37;;;;;;;4.00;2.70;;;;;;;;;;5024188;28;20503;-60
2023/05/23 13:32:02;;;;;;;5.97;2.57;;;;;;;;;;5024593;28;20041;-63
2023/05/23 13:34:27;;;;;;;3.03;2.53;;;;;;;;;;5011199;28;20312;-57
2023/05/23 13:36:53;;;;;;;3.85;2.20;;;;;;;;;;5009897;28;21214;-59
2023/05/23 13:39:21;;;;;;;6.50;2.80;;;;;;;;;;5014470;28;20099;-59
2023/05/23 13:41:46;;;;;;;6.05;2.60;;;;;;;;;;5010195;28;20479;-58
2023/05/23 13:44:11;;;;;;;5.00;2.93;;;;;;;;;;5013335;28;20042;-62
2023/05/23 13:46:37;;;;;;;5.17;2.70;;;;;;;;;;5011838;28;20099;-61
2023/05/23 13:49:02;;;;;;;3.90;2.77;;;;;;;;;;5012044;28;20304;-62
2023/05/23 13:51:27;;;;;;;4.03;2.43;;;;;;;;;;5019287;28;20513;-63
2023/05/23 13:53:52;;;;;;;4.97;2.77;;;;;;;;;;5010671;28;20294;-62
2023/05/23 13:56:18;;;;;;;5.40;2.50;;;;;;;;;;5018545;28;20041;-60
2023/05/23 13:58:45;;;;;;;4.80;2.40;;;;;;;;;;5012837;28;20120;-61
2023/05/23 14:01:10;;;;;;;3.40;2.55;;;;;;;;;;5012294;28;20312;-64
2023/05/23 14:03:36;;;;;;;4.50;2.42;;;;;;;;;;5011487;28;20062;-62
2023/05/23 14:06:03;;;;;;;6.75;2.83;;;;;;;;;;5002082;28;20120;-63
2023/05/23 14:08:28;;;;;;;4.95;2.28;;;;;;;;;;5009763;28;20084;-55
2023/05/23 14:10:54;;;;;;;3.08;2.53;;;;;;;;;;5012753;28;20116;-59
2023/05/23 14:13:20;;;;;;;4.47;2.50;;;;;;;;;;5010356;28;20132;-61
2023/05/23 14:15:45;;;;;;;4.28;2.38;;;;;;;;;;5013267;28;20327;-59
2023/05/23 14:18:11;;;;;;;4.33;2.40;;;;;;;;;;5011129;28;20033;-59
2023/05/23 14:20:36;;;;;;;5.25;2.60;;;;;;;;;;5011450;28;20038;-62
2023/05/23 14:23:01;;;;;;;5.07;2.43;;;;;;;;;;5009913;28;20539;-64
2023/05/23 14:25:26;;;;;;;3.95;2.22;;;;;;;;;;5008510;28;20347;-59
2023/05/23 14:27:52;;;;;;;4.83;2.37;;;;;;;;;;5009981;28;20525;-62
2023/05/23 14:30:17;;;;;;;4.80;2.30;;;;;;;;;;5008288;28;20343;-61
2023/05/23 14:32:42;;;;;;;5.25;2.45;;;;;;;;;;5009296;28;20147;-59
2023/05/23 14:35:10;;;;;;;5.03;2.30;;;;;;;;;;5007677;28;20515;-64
2023/05/23 14:37:36;;;;;;;6.03;2.75;;;;;;;;;;5008523;28;20037;-60
2023/05/23 14:40:01;;;;;;;5.37;2.60;;;;;;;;;;5007970;28;20041;-63
2023/05/23 14:42:27;;;;;;;4.03;2.50;;;;;;;;;;5010339;28;20312;-61